VVCL weather

Cam Ly Airport
Lam Dong Province, Vietnam

Public forecast

Using degrees Celsius for public forecast. Weather courtesy of forecast.io.

Closest aviation weather report (METAR) to Cam Ly Airport

Closest report is Cam Ranh Airport, 47.5 nm (88.1 km) E. Retrieved 2020/08/03 15:30 UTC (0 seconds ago):

VVCR 031530Z 08001KT 9999 FEW015 BKN050 28/25 Q1005 NOSIG

Closest aviation forecast (TAF) to Cam Ly Airport

Closest forecast is Cam Ranh Airport, 47.5 nm (88.1 km) E. Retrieved 2020/08/03 12:00 UTC (3 hours ago):

TAF VVCR 031100Z 0312/0412 29007KT 9999 FEW015 BKN060 TEMPO 0408/0411 TS FEW015 FEW017CB BKN060